createdAt,value
2018-05-27T00:02:23.003Z,6.27
2018-05-27T00:04:52.483Z,5.60
2018-05-27T00:07:23.224Z,5.90
2018-05-27T00:09:51.502Z,6.37
2018-05-27T00:12:20.482Z,6.20
2018-05-27T00:14:49.242Z,5.37
2018-05-27T00:17:17.964Z,5.40
2018-05-27T00:19:47.482Z,6.77
2018-05-27T00:22:16.442Z,6.20
2018-05-27T00:24:46.002Z,5.40
2018-05-27T00:27:15.483Z,5.40
2018-05-27T00:29:44.203Z,5.10
2018-05-27T00:32:13.324Z,5.30
2018-05-27T00:34:43.223Z,5.80
2018-05-27T00:37:12.242Z,4.43
2018-05-27T00:39:42.343Z,4.73
2018-05-27T00:42:10.728Z,5.00
2018-05-27T00:44:40.482Z,5.00
2018-05-27T00:47:10.082Z,5.00
2018-05-27T00:49:40.004Z,4.67
2018-05-27T00:52:09.122Z,4.60
2018-05-27T00:54:37.982Z,4.40
2018-05-27T00:57:07.502Z,4.87
2018-05-27T00:59:37.522Z,4.20
2018-05-27T01:02:07.023Z,4.50
2018-05-27T01:04:36.125Z,4.00
2018-05-27T01:07:05.783Z,4.63
2018-05-27T01:09:34.602Z,4.50
2018-05-27T01:12:04.002Z,5.43
2018-05-27T01:14:33.503Z,5.20
2018-05-27T01:17:02.642Z,4.80
2018-05-27T01:19:32.462Z,5.00
2018-05-27T01:22:01.802Z,4.57
2018-05-27T01:24:31.405Z,3.50
2018-05-27T01:27:01.042Z,3.27
2018-05-27T01:29:29.763Z,3.93
2018-05-27T01:31:58.602Z,3.90
2018-05-27T01:34:27.267Z,4.17
2018-05-27T01:36:56.602Z,4.47
2018-05-27T01:39:26.002Z,3.50
2018-05-27T01:41:54.862Z,3.67
2018-05-27T01:44:24.001Z,3.50
2018-05-27T01:46:53.002Z,3.50
2018-05-27T01:49:22.442Z,3.43
2018-05-27T01:51:51.582Z,3.37
2018-05-27T01:54:21.263Z,3.83
2018-05-27T01:56:51.164Z,4.10
2018-05-27T01:59:21.283Z,3.73
2018-05-27T02:01:51.043Z,3.60
2018-05-27T02:04:20.282Z,4.17
2018-05-27T02:06:49.803Z,4.00
2018-05-27T02:09:18.923Z,3.77
2018-05-27T02:11:47.804Z,4.37
2018-05-27T02:14:17.282Z,3.70
2018-05-27T02:16:46.322Z,4.10
2018-05-27T02:19:15.026Z,4.80
2018-05-27T02:21:45.282Z,4.10
2018-05-27T02:24:14.562Z,4.20
2018-05-27T02:26:44.043Z,5.80
2018-05-27T02:29:13.604Z,5.63
2018-05-27T02:31:42.043Z,6.30
2018-05-27T02:34:11.383Z,5.70
2018-05-27T02:36:40.523Z,6.67
2018-05-27T02:39:09.123Z,6.00
2018-05-27T02:41:38.803Z,5.97
2018-05-27T02:44:08.563Z,6.27
2018-05-27T02:46:38.004Z,6.30
2018-05-27T02:49:07.283Z,6.73
2018-05-27T02:51:36.362Z,6.50
2018-05-27T02:54:05.463Z,5.50
2018-05-27T02:56:34.383Z,5.70
2018-05-27T02:59:03.783Z,6.20
2018-05-27T03:01:32.763Z,5.60
2018-05-27T03:04:01.264Z,6.10
2018-05-27T03:06:30.003Z,6.20
2018-05-27T03:08:58.264Z,6.33
2018-05-27T03:11:27.392Z,5.83
2018-05-27T03:13:56.803Z,6.30
2018-05-27T03:16:26.462Z,6.20
2018-05-27T03:18:56.482Z,5.83
2018-05-27T03:21:25.642Z,6.03
2018-05-27T03:23:54.984Z,6.73
2018-05-27T03:26:23.565Z,5.40
2018-05-27T03:28:52.063Z,5.00
2018-05-27T03:31:21.463Z,5.30
2018-05-27T03:33:50.283Z,5.27
2018-05-27T03:36:19.443Z,5.73
2018-05-27T03:38:48.542Z,4.30
2018-05-27T03:41:17.682Z,4.80
2018-05-27T03:43:46.762Z,4.73
2018-05-27T03:46:15.667Z,4.00
2018-05-27T03:48:44.262Z,4.03
2018-05-27T03:51:13.502Z,5.03
2018-05-27T03:53:42.643Z,4.70
2018-05-27T03:56:11.663Z,5.03
2018-05-27T03:58:40.882Z,4.43
2018-05-27T04:01:09.982Z,4.90
2018-05-27T04:03:38.366Z,5.27
2018-05-27T04:06:18.883Z,5.77
2018-05-27T04:08:47.603Z,5.23
2018-05-27T04:11:16.530Z,6.10
2018-05-27T04:13:45.103Z,5.30
2018-05-27T04:16:14.141Z,4.30
2018-05-27T04:18:43.323Z,5.53
2018-05-27T04:21:11.566Z,5.77
2018-05-27T04:23:40.730Z,4.77
2018-05-27T04:26:09.542Z,4.93
2018-05-27T04:28:40.173Z,5.77
2018-05-27T04:31:08.663Z,5.03
2018-05-27T04:33:37.922Z,5.57
2018-05-27T04:36:07.303Z,6.70
2018-05-27T04:38:36.183Z,6.90
2018-05-27T04:41:05.049Z,6.87
2018-05-27T04:43:34.323Z,7.50
2018-05-27T04:46:03.722Z,7.27
2018-05-27T04:48:32.905Z,7.50
2018-05-27T04:51:01.228Z,7.50
2018-05-27T04:53:30.784Z,7.50
2018-05-27T04:56:00.562Z,7.30
2018-05-27T04:58:29.542Z,7.53
2018-05-27T05:00:59.782Z,7.40
2018-05-27T05:03:28.822Z,7.30
2018-05-27T05:05:58.581Z,7.53
2018-05-27T05:08:28.322Z,7.83
2018-05-27T05:10:58.483Z,7.80
2018-05-27T05:13:27.582Z,7.57
2018-05-27T05:15:56.842Z,8.30
2018-05-27T05:18:26.330Z,8.13
2018-05-27T05:20:55.263Z,7.77
2018-05-27T05:23:25.303Z,7.70
2018-05-27T05:25:55.302Z,7.83
2018-05-27T05:28:24.642Z,7.70
2018-05-27T05:30:54.543Z,8.10
2018-05-27T05:33:24.382Z,8.63
2018-05-27T05:35:53.382Z,8.03
2018-05-27T05:38:22.142Z,7.27
2018-05-27T05:40:51.364Z,8.00
2018-05-27T05:43:20.182Z,7.90
2018-05-27T05:45:49.622Z,7.67
2018-05-27T05:48:18.631Z,6.53
2018-05-27T05:50:47.842Z,7.80
2018-05-27T05:53:16.603Z,7.03
2018-05-27T05:55:45.603Z,7.10
2018-05-27T05:58:14.583Z,6.53
2018-05-27T06:00:43.323Z,6.47
2018-05-27T06:03:12.523Z,8.30
2018-05-27T06:05:41.044Z,5.70
2018-05-27T06:08:09.802Z,5.93
2018-05-27T06:10:38.563Z,6.20
2018-05-27T06:13:07.763Z,6.17
2018-05-27T06:15:37.043Z,6.80
2018-05-27T06:18:06.183Z,6.60
2018-05-27T06:20:35.003Z,7.10
2018-05-27T06:23:04.123Z,7.20
2018-05-27T06:25:32.969Z,7.93
2018-05-27T06:28:01.583Z,7.40
2018-05-27T06:30:30.324Z,7.83
2018-05-27T06:32:59.463Z,7.27
2018-05-27T06:35:28.783Z,7.60
2018-05-27T06:37:57.963Z,7.17
2018-05-27T06:40:26.983Z,7.60
2018-05-27T06:42:56.463Z,6.60
2018-05-27T06:45:25.733Z,6.20
2018-05-27T06:47:55.403Z,5.90
2018-05-27T06:50:24.462Z,5.10
2018-05-27T06:52:54.004Z,5.50
2018-05-27T06:55:23.489Z,5.27
2018-05-27T06:57:53.766Z,4.60
2018-05-27T07:00:23.043Z,4.63
2018-05-27T07:02:52.086Z,4.73
2018-05-27T07:05:21.244Z,4.33
2018-05-27T07:07:49.978Z,4.77
2018-05-27T07:10:19.483Z,4.83
2018-05-27T07:12:48.823Z,5.30
2018-05-27T07:15:17.746Z,5.10
2018-05-27T07:17:46.963Z,5.23
2018-05-27T07:20:16.242Z,5.60
2018-05-27T07:22:46.203Z,5.20
2018-05-27T07:25:15.242Z,5.90
2018-05-27T07:27:44.082Z,5.07
2018-05-27T07:30:13.463Z,5.80
2018-05-27T07:32:42.223Z,6.93
2018-05-27T07:35:10.962Z,5.20
2018-05-27T07:37:40.182Z,5.60
2018-05-27T07:40:09.450Z,5.90
2018-05-27T07:42:38.962Z,6.27
2018-05-27T07:45:08.042Z,5.37
2018-05-27T07:47:37.301Z,4.60
2018-05-27T07:50:05.522Z,5.03
2018-05-27T07:52:33.896Z,4.43
2018-05-27T07:55:03.023Z,4.67
2018-05-27T07:57:32.642Z,5.03
2018-05-27T08:00:01.644Z,6.10
2018-05-27T08:02:30.881Z,5.40
2018-05-27T08:04:59.222Z,4.43
2018-05-27T08:07:27.963Z,4.93
2018-05-27T08:09:56.703Z,5.00
2018-05-27T08:12:25.182Z,9.63
2018-05-27T08:14:54.922Z,4.20
2018-05-27T08:17:24.082Z,4.50
2018-05-27T08:19:53.365Z,4.57
2018-05-27T08:22:22.643Z,4.57
2018-05-27T08:24:52.403Z,7.40
2018-05-27T08:27:21.183Z,9.20
2018-05-27T08:29:50.542Z,7.70
2018-05-27T08:32:19.783Z,8.40
2018-05-27T08:34:49.203Z,8.93
2018-05-27T08:37:18.607Z,9.70
2018-05-27T08:39:48.383Z,9.00
2018-05-27T08:42:17.884Z,8.10
2018-05-27T08:44:46.702Z,7.67
2018-05-27T08:47:16.123Z,10.03
2018-05-27T08:49:45.110Z,8.03
2018-05-27T08:52:14.642Z,8.10
2018-05-27T08:54:43.442Z,7.90
2018-05-27T08:57:12.175Z,8.57
2018-05-27T08:59:41.602Z,9.33
2018-05-27T09:02:10.843Z,7.43
2018-05-27T09:04:39.662Z,8.33
2018-05-27T09:07:09.842Z,8.80
2018-05-27T09:09:38.442Z,8.70
2018-05-27T09:12:08.082Z,8.57
2018-05-27T09:14:37.362Z,9.23
2018-05-27T09:17:07.264Z,9.00
2018-05-27T09:19:36.662Z,8.23
2018-05-27T09:22:05.633Z,9.33
2018-05-27T09:24:34.842Z,8.10
2018-05-27T09:27:04.083Z,8.00
2018-05-27T09:29:32.403Z,8.10
2018-05-27T09:32:01.322Z,9.57
2018-05-27T09:34:31.062Z,8.00
2018-05-27T09:36:59.803Z,7.80
2018-05-27T09:39:29.323Z,8.53
2018-05-27T09:41:59.582Z,8.07
2018-05-27T09:44:27.942Z,8.70
2018-05-27T09:46:56.562Z,8.40
2018-05-27T09:49:25.982Z,8.97
2018-05-27T09:51:55.503Z,9.87
2018-05-27T09:54:24.301Z,9.00
2018-05-27T09:56:53.951Z,10.57
2018-05-27T09:59:23.241Z,9.57
2018-05-27T10:01:52.561Z,8.57
2018-05-27T10:04:21.821Z,8.30
2018-05-27T10:06:51.301Z,8.47
2018-05-27T10:09:20.161Z,8.33
2018-05-27T10:11:49.464Z,8.30
2018-05-27T10:14:17.781Z,8.20
2018-05-27T10:16:47.802Z,8.40
2018-05-27T10:19:16.521Z,8.93
2018-05-27T10:21:45.522Z,7.80
2018-05-27T10:24:14.482Z,8.70
2018-05-27T10:26:43.701Z,8.73
2018-05-27T10:29:12.861Z,8.30
2018-05-27T10:31:41.724Z,8.90
2018-05-27T10:34:10.522Z,8.13
2018-05-27T10:36:39.521Z,8.00
2018-05-27T10:39:08.730Z,7.70
2018-05-27T10:41:38.801Z,7.20
2018-05-27T10:44:07.759Z,7.30
2018-05-27T10:46:37.493Z,7.87
2018-05-27T10:49:05.813Z,8.50
2018-05-27T10:51:34.729Z,9.03
2018-05-27T10:54:03.970Z,8.60
2018-05-27T10:56:33.209Z,9.30
2018-05-27T10:59:02.290Z,9.77
2018-05-27T11:01:31.801Z,8.73
2018-05-27T11:04:01.209Z,8.47
2018-05-27T11:06:29.990Z,7.60
2018-05-27T11:08:58.710Z,9.27
2018-05-27T11:11:28.289Z,9.17
2018-05-27T11:13:56.968Z,9.23
2018-05-27T11:16:26.209Z,8.50
2018-05-27T11:18:55.940Z,8.33
2018-05-27T11:21:24.448Z,8.73
2018-05-27T11:23:53.428Z,9.30
2018-05-27T11:26:22.689Z,9.07
2018-05-27T11:28:51.669Z,9.70
2018-05-27T11:31:20.928Z,9.93
2018-05-27T11:33:50.149Z,9.93
2018-05-27T11:36:19.148Z,9.27
2018-05-27T11:38:48.135Z,9.20
2018-05-27T11:41:17.448Z,10.20
2018-05-27T11:43:46.489Z,10.33
2018-05-27T11:46:15.649Z,10.33
2018-05-27T11:48:45.409Z,9.07
2018-05-27T11:51:14.271Z,7.80
2018-05-27T11:53:43.930Z,9.37
2018-05-27T11:56:13.168Z,9.40
2018-05-27T11:58:42.649Z,8.53
2018-05-27T12:01:11.129Z,9.70
2018-05-27T12:03:39.749Z,9.20
2018-05-27T12:06:09.369Z,10.40
2018-05-27T12:08:38.128Z,10.20
2018-05-27T12:11:07.609Z,9.97
2018-05-27T12:13:36.869Z,9.10
2018-05-27T12:16:06.289Z,8.90
2018-05-27T12:18:35.369Z,8.13
2018-05-27T12:21:05.048Z,8.30
2018-05-27T12:23:34.748Z,7.63
2018-05-27T12:26:05.249Z,6.47
2018-05-27T12:28:34.269Z,7.20
2018-05-27T12:31:03.428Z,5.87
2018-05-27T12:33:33.429Z,4.27
2018-05-27T12:36:02.389Z,5.20
2018-05-27T12:38:30.929Z,4.57
2018-05-27T12:40:59.728Z,3.43
2018-05-27T12:43:28.888Z,4.17
2018-05-27T12:45:58.148Z,5.70
2018-05-27T12:48:27.888Z,5.10
2018-05-27T12:50:56.699Z,6.57
2018-05-27T12:53:26.048Z,6.23
2018-05-27T12:55:55.132Z,6.33
2018-05-27T12:58:24.129Z,7.10
2018-05-27T13:00:53.728Z,6.00
2018-05-27T13:03:23.128Z,7.23
2018-05-27T13:05:51.946Z,5.80
2018-05-27T13:08:21.369Z,5.27
2018-05-27T13:10:50.068Z,4.97
2018-05-27T13:13:19.368Z,5.00
2018-05-27T13:15:48.349Z,5.00
2018-05-27T13:18:17.870Z,5.80
2018-05-27T13:20:46.932Z,6.57
2018-05-27T13:23:16.114Z,6.90
2018-05-27T13:25:45.891Z,6.27
2018-05-27T13:28:14.892Z,6.80
2018-05-27T13:30:43.169Z,5.60
2018-05-27T13:33:13.133Z,5.13
2018-05-27T13:35:41.710Z,5.53
2018-05-27T13:38:11.189Z,5.60
2018-05-27T13:40:40.091Z,6.20
2018-05-27T13:43:10.090Z,6.53
2018-05-27T13:45:38.848Z,5.87
2018-05-27T13:48:08.609Z,6.23
2018-05-27T13:50:38.349Z,6.60
2018-05-27T13:53:08.091Z,7.00
2018-05-27T13:55:37.228Z,7.60
2018-05-27T13:58:06.609Z,7.40
2018-05-27T14:00:36.110Z,9.83
2018-05-27T14:03:05.889Z,7.20
2018-05-27T14:05:34.453Z,7.80
2018-05-27T14:08:03.890Z,7.17
2018-05-27T14:10:33.129Z,7.50
2018-05-27T14:13:02.430Z,7.27
2018-05-27T14:15:31.450Z,7.50
2018-05-27T14:18:01.129Z,7.57
2018-05-27T14:20:30.630Z,7.70
2018-05-27T14:22:59.609Z,7.77
2018-05-27T14:25:28.890Z,7.83
2018-05-27T14:27:57.710Z,7.40
2018-05-27T14:30:26.429Z,8.67
2018-05-27T14:32:55.089Z,8.27
2018-05-27T14:35:24.589Z,8.37
2018-05-27T14:37:53.829Z,8.87
2018-05-27T14:40:22.569Z,8.80
2018-05-27T14:42:51.428Z,8.93
2018-05-27T14:45:20.549Z,9.47
2018-05-27T14:47:49.678Z,8.00
2018-05-27T14:50:18.580Z,7.90
2018-05-27T14:52:47.178Z,8.50
2018-05-27T14:55:16.440Z,8.20
2018-05-27T14:57:45.799Z,8.60
2018-05-27T15:00:15.920Z,8.43
2018-05-27T15:02:45.298Z,8.60
2018-05-27T15:05:15.078Z,7.90
2018-05-27T15:07:44.795Z,9.17
2018-05-27T15:10:14.088Z,9.10
2018-05-27T15:12:44.098Z,8.40
2018-05-27T15:15:12.939Z,8.83
2018-05-27T15:17:42.458Z,12.33
2018-05-27T15:20:11.319Z,8.20
2018-05-27T15:22:41.006Z,8.57
2018-05-27T15:25:10.369Z,6.63
2018-05-27T15:27:39.437Z,8.37
2018-05-27T15:30:08.877Z,8.03
2018-05-27T15:32:37.919Z,7.93
2018-05-27T15:35:07.597Z,9.70
2018-05-27T15:37:37.438Z,8.20
2018-05-27T15:40:06.337Z,7.70
2018-05-27T15:42:35.337Z,7.70
2018-05-27T15:45:03.917Z,8.40
2018-05-27T15:47:33.357Z,7.30
2018-05-27T15:50:01.940Z,7.20
2018-05-27T15:52:31.317Z,6.93
2018-05-27T15:55:00.141Z,7.00
2018-05-27T15:57:29.797Z,6.13
2018-05-27T15:59:58.457Z,5.90
2018-05-27T16:02:28.037Z,6.40
2018-05-27T16:04:57.557Z,6.20
2018-05-27T16:07:26.037Z,6.27
2018-05-27T16:09:55.277Z,7.17
2018-05-27T16:12:24.240Z,8.07
2018-05-27T16:14:54.057Z,8.40
2018-05-27T16:17:23.557Z,14.97
2018-05-27T16:19:52.419Z,8.30
2018-05-27T16:22:21.018Z,7.40
2018-05-27T16:24:50.437Z,8.30
2018-05-27T16:27:19.557Z,11.63
2018-05-27T16:29:49.037Z,7.40
2018-05-27T16:32:19.797Z,6.83
2018-05-27T16:34:48.557Z,6.90
2018-05-27T16:37:17.538Z,5.87
2018-05-27T16:39:46.776Z,5.53
2018-05-27T16:42:15.777Z,6.07
2018-05-27T16:44:44.804Z,6.97
2018-05-27T16:47:14.797Z,9.50
2018-05-27T16:49:43.952Z,6.03
2018-05-27T16:52:13.037Z,6.13
2018-05-27T16:54:42.136Z,5.30
2018-05-27T16:57:11.037Z,6.50
2018-05-27T16:59:39.657Z,7.13
2018-05-27T17:02:09.257Z,7.23
2018-05-27T17:04:38.256Z,7.13
2018-05-27T17:07:06.816Z,7.20
2018-05-27T17:09:36.237Z,7.77
2018-05-27T17:12:05.337Z,6.83
2018-05-27T17:14:34.457Z,8.17
2018-05-27T17:17:03.497Z,7.40
2018-05-27T17:19:32.478Z,7.57
2018-05-27T17:22:01.464Z,7.50
2018-05-27T17:24:31.238Z,7.80
2018-05-27T17:27:00.737Z,7.10
2018-05-27T17:29:29.796Z,8.57
2018-05-27T17:31:59.217Z,8.00
2018-05-27T17:34:28.218Z,8.03
2018-05-27T17:36:57.237Z,7.40
2018-05-27T17:39:26.477Z,6.97
2018-05-27T17:41:55.857Z,7.70
2018-05-27T17:44:25.217Z,8.30
2018-05-27T17:46:54.075Z,7.77
2018-05-27T17:49:23.457Z,7.47
2018-05-27T17:51:52.439Z,8.67
2018-05-27T17:54:22.518Z,8.07
2018-05-27T17:56:51.197Z,8.17
2018-05-27T17:59:20.797Z,9.10
2018-05-27T18:01:49.677Z,8.20
2018-05-27T18:04:19.217Z,11.10
2018-05-27T18:06:48.218Z,8.03
2018-05-27T18:09:17.777Z,7.97
2018-05-27T18:11:47.477Z,9.50
2018-05-27T18:14:17.217Z,7.20
2018-05-27T18:16:46.238Z,7.43
2018-05-27T18:19:15.643Z,8.63
2018-05-27T18:21:44.457Z,9.30
2018-05-27T18:24:12.937Z,7.60
2018-05-27T18:26:42.196Z,20.30
2018-05-27T18:29:10.956Z,7.40
2018-05-27T18:31:39.757Z,9.20
2018-05-27T18:34:08.397Z,8.43
2018-05-27T18:36:37.677Z,7.93
2018-05-27T18:39:06.137Z,8.33
2018-05-27T18:41:35.137Z,7.90
2018-05-27T18:44:03.736Z,8.27
2018-05-27T18:46:32.899Z,7.73
2018-05-27T18:49:01.958Z,7.30
2018-05-27T18:51:31.097Z,7.47
2018-05-27T18:54:00.216Z,7.53
2018-05-27T18:56:29.337Z,7.20
2018-05-27T18:58:58.219Z,7.37
2018-05-27T19:01:28.097Z,14.17
2018-05-27T19:03:57.598Z,12.30
2018-05-27T19:06:26.576Z,22.47
2018-05-27T19:08:56.278Z,16.40
2018-05-27T19:11:25.097Z,15.93
2018-05-27T19:13:54.117Z,27.47
2018-05-27T19:16:23.096Z,8.07
2018-05-27T19:18:52.797Z,12.33
2018-05-27T19:21:22.097Z,18.53
2018-05-27T19:23:50.577Z,9.53
2018-05-27T19:26:19.057Z,8.40
2018-05-27T19:28:48.157Z,7.03
2018-05-27T19:31:17.058Z,7.97
2018-05-27T19:33:46.798Z,7.53
2018-05-27T19:36:15.557Z,7.17
2018-05-27T19:38:44.378Z,7.33
2018-05-27T19:41:13.017Z,7.10
2018-05-27T19:43:42.030Z,7.40
2018-05-27T19:46:11.037Z,7.23
2018-05-27T19:48:39.577Z,9.33
2018-05-27T19:51:09.437Z,6.70
2018-05-27T19:53:38.497Z,6.63
2018-05-27T19:56:08.258Z,6.90
2018-05-27T19:58:38.017Z,9.10
2018-05-27T20:01:07.360Z,7.90
2018-05-27T20:03:35.998Z,7.27
2018-05-27T20:06:05.357Z,7.50
2018-05-27T20:08:34.537Z,8.90
2018-05-27T20:11:03.005Z,7.50
2018-05-27T20:13:32.638Z,9.87
2018-05-27T20:16:02.497Z,10.20
2018-05-27T20:18:31.608Z,7.47
2018-05-27T20:21:00.738Z,10.37
2018-05-27T20:23:29.704Z,7.60
2018-05-27T20:25:58.576Z,7.90
2018-05-27T20:28:30.019Z,8.07
2018-05-27T20:30:59.757Z,10.17
2018-05-27T20:33:29.537Z,7.33
2018-05-27T20:35:58.424Z,7.97
2018-05-27T20:38:27.816Z,8.03
2018-05-27T20:40:56.818Z,7.80
2018-05-27T20:43:27.317Z,7.10
2018-05-27T20:45:56.576Z,6.20
2018-05-27T20:48:25.237Z,7.10
2018-05-27T20:50:54.816Z,6.60
2018-05-27T20:53:23.376Z,6.57
2018-05-27T20:55:52.536Z,28.87
2018-05-27T20:58:22.120Z,7.07
2018-05-27T21:00:51.838Z,6.70
2018-05-27T21:03:20.896Z,6.23
2018-05-27T21:05:49.536Z,6.67
2018-05-27T21:08:18.997Z,6.40
2018-05-27T21:10:48.996Z,6.57
2018-05-27T21:13:17.296Z,6.60
2018-05-27T21:15:46.277Z,6.63
2018-05-27T21:18:14.613Z,7.47
2018-05-27T21:20:44.256Z,7.00
2018-05-27T21:23:13.496Z,6.30
2018-05-27T21:25:42.497Z,6.10
2018-05-27T21:28:11.755Z,4.47
2018-05-27T21:30:41.016Z,4.97
2018-05-27T21:33:10.516Z,4.57
2018-05-27T21:35:40.016Z,4.40
2018-05-27T21:38:08.756Z,3.30
2018-05-27T21:40:37.777Z,3.30
2018-05-27T21:43:07.782Z,3.17
2018-05-27T21:45:37.525Z,3.30
2018-05-27T21:48:06.356Z,5.10
2018-05-27T21:50:36.276Z,3.33
2018-05-27T21:53:05.277Z,2.80
2018-05-27T21:55:34.273Z,3.33
2018-05-27T21:58:03.114Z,2.40
2018-05-27T22:00:32.507Z,2.27
2018-05-27T22:03:01.287Z,3.13
2018-05-27T22:05:29.962Z,2.20
2018-05-27T22:07:58.188Z,1.83
2018-05-27T22:10:27.500Z,1.83
2018-05-27T22:12:56.581Z,2.90
2018-05-27T22:15:26.339Z,2.40
2018-05-27T22:17:54.967Z,2.60
2018-05-27T22:20:25.060Z,2.83
2018-05-27T22:22:54.453Z,1.97
2018-05-27T22:25:23.440Z,2.07
2018-05-27T22:27:52.469Z,2.10
2018-05-27T22:30:21.707Z,1.93
2018-05-27T22:32:50.407Z,1.97
2018-05-27T22:35:19.679Z,2.10
2018-05-27T22:37:48.782Z,1.87
2018-05-27T22:40:18.181Z,2.60
2018-05-27T22:42:47.000Z,1.77
2018-05-27T22:45:15.679Z,2.07
2018-05-27T22:47:44.908Z,1.67
2018-05-27T22:50:13.669Z,1.93
2018-05-27T22:52:42.879Z,1.50
2018-05-27T22:55:11.627Z,1.70
2018-05-27T22:57:40.879Z,2.67
2018-05-27T23:00:10.040Z,1.23
2018-05-27T23:02:38.859Z,1.90
2018-05-27T23:05:07.440Z,1.30
2018-05-27T23:07:36.880Z,1.20
2018-05-27T23:10:07.381Z,1.53
2018-05-27T23:12:36.401Z,1.30
2018-05-27T23:15:06.927Z,1.60
2018-05-27T23:17:36.402Z,1.33
2018-05-27T23:20:05.662Z,0.87
2018-05-27T23:22:35.180Z,1.70
2018-05-27T23:25:05.202Z,1.47
2018-05-27T23:27:34.680Z,1.57
2018-05-27T23:30:03.320Z,1.37
2018-05-27T23:32:31.940Z,1.17
2018-05-27T23:35:01.480Z,1.40
2018-05-27T23:37:31.679Z,1.20
2018-05-27T23:40:00.939Z,0.90
2018-05-27T23:42:30.199Z,1.20
2018-05-27T23:44:59.500Z,1.10
2018-05-27T23:47:28.420Z,1.40
2018-05-27T23:49:57.180Z,1.00
2018-05-27T23:52:25.500Z,1.60
2018-05-27T23:54:55.419Z,1.17
2018-05-27T23:57:25.183Z,1.40
2018-05-27T23:59:54.939Z,1.03
